Time;durP1;ratioP1;P1;durP2;ratioP2;P2;SDS_P1;SDS_P2;PMS_P1;PMS_P2;Temp;Humidity;BMP_temperature;BMP_pressure;BME280_temperature;BME280_humidity;BME280_pressure;Samples;Min_cycle;Max_cycle;Signal;HPM_P1;HPM_P2
2022/12/22 03:27:01;;;;;;;41.22;22.98;;;9.50;99.90;;;;;;5058660;28;21613;-80
2022/12/22 03:29:27;;;;;;;30.63;19.42;;;9.50;99.90;;;;;;5066144;28;20505;-80
2022/12/22 03:31:53;;;;;;;35.83;21.30;;;9.50;99.90;;;;;;5068509;28;20035;-80
2022/12/22 03:34:20;;;;;;;43.92;19.98;;;9.50;99.90;;;;;;5067842;28;20359;-80
2022/12/22 03:36:46;;;;;;;34.63;20.40;;;9.50;99.90;;;;;;5095673;28;20047;-80
2022/12/22 03:39:12;;;;;;;31.73;20.20;;;9.50;99.90;;;;;;5080864;28;20029;-80
2022/12/22 03:47:09;;;;;;;23.38;15.48;;;9.50;99.90;;;;;;5075362;28;20070;-80
2022/12/22 03:49:35;;;;;;;30.20;18.17;;;9.50;99.90;;;;;;5083360;28;20031;-80
2022/12/22 03:52:01;;;;;;;30.17;17.42;;;9.50;99.90;;;;;;5083979;28;20044;-80
2022/12/22 03:54:27;;;;;;;28.88;17.10;;;9.50;99.90;;;;;;5067591;28;20059;-80
2022/12/22 03:56:54;;;;;;;26.17;17.55;;;9.50;99.90;;;;;;5060263;28;20501;-80
2022/12/22 03:59:20;;;;;;;39.58;18.17;;;9.50;99.90;;;;;;5081465;28;20028;-80
2022/12/22 04:01:50;;;;;;;33.80;17.83;;;9.50;99.90;;;;;;5084512;28;20035;-80
2022/12/22 04:04:19;;;;;;;27.33;17.20;;;9.60;99.90;;;;;;5083989;28;20051;-80
2022/12/22 04:06:46;;;;;;;27.52;16.90;;;9.50;99.90;;;;;;5061736;28;20039;-80
2022/12/22 04:09:13;;;;;;;36.42;16.85;;;9.50;99.90;;;;;;5063300;28;20044;-80
2022/12/22 04:14:25;;;;;;;31.90;15.80;;;9.50;99.90;;;;;;5067068;28;20048;-80
2022/12/22 04:16:51;;;;;;;27.98;17.25;;;9.50;99.90;;;;;;5044519;28;20571;-80
2022/12/22 04:19:18;;;;;;;57.22;17.85;;;9.50;99.90;;;;;;5064963;28;20047;-81
2022/12/22 04:21:44;;;;;;;47.67;16.55;;;9.50;99.90;;;;;;5066826;28;20040;-80
2022/12/22 04:24:11;;;;;;;78.45;17.85;;;9.50;99.90;;;;;;5066713;28;20517;-80
2022/12/22 04:26:38;;;;;;;126.10;19.20;;;9.50;99.90;;;;;;5063135;28;20375;-80
2022/12/22 04:29:05;;;;;;;96.07;19.80;;;9.50;99.90;;;;;;5061726;28;20483;-80
2022/12/22 04:31:31;;;;;;;37.58;18.50;;;9.50;99.90;;;;;;5084779;28;20296;-80
2022/12/22 04:33:58;;;;;;;42.28;20.73;;;9.60;99.90;;;;;;5087103;28;20039;-80
2022/12/22 04:36:24;;;;;;;38.35;21.02;;;9.50;99.90;;;;;;5086285;28;20069;-80
2022/12/22 04:38:50;;;;;;;37.08;19.70;;;9.60;99.90;;;;;;5063299;28;20028;-80
2022/12/22 04:41:17;;;;;;;78.03;28.50;;;9.60;99.90;;;;;;5070592;28;20407;-80
2022/12/22 04:43:43;;;;;;;44.03;23.30;;;9.50;99.90;;;;;;5070490;28;20430;-79
2022/12/22 04:46:10;;;;;;;32.97;20.52;;;9.60;99.90;;;;;;5087374;28;20537;-80
2022/12/22 04:48:36;;;;;;;32.88;19.05;;;9.60;99.90;;;;;;5060819;28;20044;-80
2022/12/22 04:51:03;;;;;;;32.50;19.38;;;9.50;99.90;;;;;;5070522;28;20493;-80
2022/12/22 04:53:30;;;;;;;29.23;17.75;;;9.60;99.90;;;;;;5087164;28;20573;-79
2022/12/22 04:56:02;;;;;;;30.30;16.55;;;9.60;99.90;;;;;;5087139;28;20040;-79
2022/12/22 04:58:29;;;;;;;112.45;17.83;;;9.60;99.90;;;;;;5095097;28;20044;-79
2022/12/22 05:00:56;;;;;;;48.67;16.85;;;9.60;99.90;;;;;;5088415;28;20028;-79
2022/12/22 05:03:23;;;;;;;43.35;16.45;;;9.60;99.90;;;;;;5087512;28;20020;-79
2022/12/22 05:05:50;;;;;;;37.75;19.63;;;9.60;99.90;;;;;;5088857;28;20510;-79
2022/12/22 05:08:16;;;;;;;36.40;18.75;;;9.60;99.90;;;;;;5079410;28;20040;-79
2022/12/22 05:10:42;;;;;;;37.53;18.30;;;9.60;99.90;;;;;;5087214;28;20043;-79
2022/12/22 05:13:09;;;;;;;33.70;16.45;;;9.60;99.90;;;;;;5086628;28;20039;-79
2022/12/22 05:15:35;;;;;;;74.35;17.23;;;9.60;99.90;;;;;;5087505;28;20039;-79
2022/12/22 05:18:03;;;;;;;51.05;17.55;;;9.60;99.90;;;;;;5079322;28;20031;-79
2022/12/22 05:20:30;;;;;;;37.72;16.77;;;9.60;99.90;;;;;;5088696;28;20035;-79
2022/12/22 05:22:56;;;;;;;36.92;16.67;;;9.70;99.90;;;;;;5078266;28;20423;-79
2022/12/22 05:25:23;;;;;;;43.50;19.50;;;9.60;99.90;;;;;;5084736;28;20032;-79
2022/12/22 05:27:49;;;;;;;39.20;17.02;;;9.70;99.90;;;;;;5063795;28;20412;-79
2022/12/22 05:30:17;;;;;;;40.80;19.75;;;9.60;99.90;;;;;;5086820;28;20505;-79
2022/12/22 05:32:44;;;;;;;33.88;16.77;;;9.60;99.90;;;;;;5069217;28;20036;-79
2022/12/22 05:35:10;;;;;;;57.10;18.30;;;9.60;99.90;;;;;;5087151;28;20038;-79
2022/12/22 05:37:37;;;;;;;71.30;17.00;;;9.60;99.90;;;;;;5080446;28;20372;-79
2022/12/22 05:40:04;;;;;;;38.30;18.42;;;9.60;99.90;;;;;;5069553;28;20027;-79
2022/12/22 05:42:36;;;;;;;39.25;17.77;;;9.60;99.90;;;;;;5087381;28;20501;-79
2022/12/22 05:45:08;;;;;;;75.07;19.48;;;9.60;99.90;;;;;;5069645;28;20036;-79
2022/12/22 05:47:35;;;;;;;43.20;17.70;;;9.60;99.90;;;;;;5079830;28;20507;-80
2022/12/22 05:50:01;;;;;;;35.33;15.07;;;9.60;99.90;;;;;;5086559;28;20472;-80
2022/12/22 05:52:27;;;;;;;47.33;15.05;;;9.60;99.90;;;;;;5086138;28;20050;-80
2022/12/22 05:54:54;;;;;;;38.70;16.35;;;9.60;99.90;;;;;;5086459;28;20047;-80
2022/12/22 05:57:21;;;;;;;40.05;16.17;;;9.60;99.90;;;;;;5063241;28;20051;-79
2022/12/22 05:59:47;;;;;;;45.13;16.20;;;9.60;99.90;;;;;;5086020;28;20390;-79
2022/12/22 06:02:14;;;;;;;30.42;14.27;;;9.60;99.90;;;;;;5068906;28;20036;-79
2022/12/22 06:04:40;;;;;;;33.72;15.55;;;9.60;99.90;;;;;;5074096;28;20538;-80
2022/12/22 06:07:06;;;;;;;37.10;16.73;;;9.60;99.90;;;;;;5063313;28;20047;-79
2022/12/22 06:09:33;;;;;;;45.50;16.75;;;9.60;99.90;;;;;;5085395;28;20047;-80
2022/12/22 06:11:59;;;;;;;35.08;15.68;;;9.60;99.90;;;;;;5085767;28;20364;-79
2022/12/22 06:14:26;;;;;;;41.75;15.90;;;9.60;99.90;;;;;;5086084;28;20051;-80
2022/12/22 06:16:52;;;;;;;27.45;13.10;;;9.60;99.90;;;;;;5080789;28;20643;-79
2022/12/22 06:19:18;;;;;;;47.10;18.70;;;9.60;99.90;;;;;;5081357;28;20047;-79
2022/12/22 06:21:44;;;;;;;41.88;17.38;;;9.60;99.90;;;;;;5065534;28;20045;-81
2022/12/22 06:24:11;;;;;;;36.92;15.50;;;9.60;99.90;;;;;;5075657;28;20063;-80
2022/12/22 06:26:37;;;;;;;57.88;23.50;;;9.60;99.90;;;;;;5079998;28;21716;-80
2022/12/22 06:29:03;;;;;;;51.55;19.55;;;9.60;99.90;;;;;;5045162;28;20044;-82
2022/12/22 06:31:30;;;;;;;49.33;21.55;;;9.60;99.90;;;;;;5098732;27;20037;-81
2022/12/22 06:33:56;;;;;;;35.65;15.90;;;9.60;99.90;;;;;;5084862;28;20043;-84
2022/12/22 06:36:23;;;;;;;43.95;17.92;;;9.60;99.90;;;;;;5060360;28;20036;-81
2022/12/22 06:38:49;;;;;;;42.70;17.92;;;9.60;99.90;;;;;;5078880;28;20024;-81
2022/12/22 06:43:07;;;;;;;45.58;18.77;;;9.60;99.90;;;;;;5065739;28;20411;-81
2022/12/22 06:44:02;;;;;;;47.30;19.30;;;9.60;99.90;;;;;;5092876;28;20021;-81
2022/12/22 06:46:28;;;;;;;52.25;19.08;;;9.60;99.90;;;;;;5078914;28;20040;-81
2022/12/22 06:48:54;;;;;;;45.20;17.77;;;9.60;99.90;;;;;;5074823;28;20043;-81
2022/12/22 06:51:20;;;;;;;52.30;18.73;;;9.60;99.90;;;;;;5085720;28;20040;-80
2022/12/22 06:53:47;;;;;;;52.22;19.92;;;9.60;99.90;;;;;;5084628;28;20043;-80
2022/12/22 06:56:13;;;;;;;47.35;16.98;;;9.60;99.90;;;;;;5067303;28;20043;-80
2022/12/22 06:58:39;;;;;;;40.03;16.25;;;9.60;99.90;;;;;;5079405;28;20475;-81
2022/12/22 07:01:06;;;;;;;57.13;21.67;;;9.60;99.90;;;;;;5102757;28;20032;-81
2022/12/22 07:03:32;;;;;;;55.17;21.95;;;9.60;99.90;;;;;;5085406;28;20491;-80
2022/12/22 07:05:58;;;;;;;40.30;18.65;;;9.60;99.90;;;;;;5085478;28;20028;-81
2022/12/22 07:08:25;;;;;;;41.88;17.00;;;9.60;99.90;;;;;;5060806;28;20489;-80
2022/12/22 07:10:57;;;;;;;47.05;18.67;;;9.70;99.90;;;;;;5085515;28;20505;-80
2022/12/22 07:13:32;;;;;;;37.50;15.30;;;9.60;99.90;;;;;;5101810;28;20044;-80
2022/12/22 07:16:03;;;;;;;38.25;16.63;;;9.60;99.90;;;;;;5065427;28;20051;-81
2022/12/22 07:18:32;;;;;;;37.63;14.52;;;9.50;99.90;;;;;;5076998;28;20036;-81
2022/12/22 07:21:00;;;;;;;38.65;15.30;;;9.50;99.90;;;;;;5068117;28;20052;-80
2022/12/22 07:23:27;;;;;;;32.75;13.88;;;9.50;99.90;;;;;;5067331;28;20036;-80
2022/12/22 07:25:53;;;;;;;35.00;14.70;;;9.50;99.90;;;;;;5067214;28;20493;-80
2022/12/22 07:28:19;;;;;;;33.92;13.50;;;9.50;99.90;;;;;;5077719;28;20035;-80
2022/12/22 07:30:46;;;;;;;45.72;17.55;;;9.40;99.90;;;;;;5061609;28;20509;-80
2022/12/22 07:33:12;;;;;;;26.98;12.90;;;9.40;99.90;;;;;;5067527;28;20079;-80
2022/12/22 07:35:39;;;;;;;35.13;15.18;;;9.40;99.90;;;;;;5085227;28;20525;-80
2022/12/22 07:38:05;;;;;;;38.25;15.75;;;9.40;99.90;;;;;;5077297;28;20039;-80
2022/12/22 07:40:31;;;;;;;38.65;15.18;;;9.40;99.90;;;;;;5084767;28;20043;-79
2022/12/22 07:42:59;;;;;;;37.60;16.08;;;9.40;99.90;;;;;;5101136;28;20312;-80
2022/12/22 07:45:26;;;;;;;37.70;15.52;;;9.40;99.90;;;;;;5067849;28;20039;-80
2022/12/22 07:47:58;;;;;;;43.22;17.52;;;9.30;99.90;;;;;;5079158;28;20042;-80
2022/12/22 07:50:26;;;;;;;40.33;17.90;;;9.30;99.90;;;;;;5067219;28;20034;-79
2022/12/22 07:53:03;;;;;;;38.35;18.02;;;9.30;99.90;;;;;;5083900;28;20035;-80
2022/12/22 07:55:34;;;;;;;47.85;20.92;;;9.40;99.90;;;;;;5084594;28;20028;-80
2022/12/22 07:58:00;;;;;;;48.88;22.17;;;9.30;99.90;;;;;;5060918;28;20032;-79
2022/12/22 08:00:27;;;;;;;50.72;22.88;;;9.30;99.90;;;;;;5067100;28;20040;-81
2022/12/22 08:02:56;;;;;;;67.97;28.35;;;9.30;99.90;;;;;;5066893;28;20043;-79
2022/12/22 08:05:24;;;;;;;73.45;28.33;;;9.30;99.90;;;;;;5083459;28;20027;-78
2022/12/22 08:07:51;;;;;;;77.43;33.05;;;9.30;99.90;;;;;;5060307;28;20052;-77
2022/12/22 08:10:18;;;;;;;72.72;29.08;;;9.30;99.90;;;;;;5083874;28;20036;-78
2022/12/22 08:12:46;;;;;;;60.08;25.60;;;9.30;99.90;;;;;;5083172;28;20039;-78
2022/12/22 08:15:12;;;;;;;75.30;29.85;;;9.30;99.90;;;;;;5083059;28;20036;-78
2022/12/22 08:17:38;;;;;;;54.25;23.77;;;9.30;99.90;;;;;;5061081;28;20048;-79
2022/12/22 08:20:05;;;;;;;74.35;27.73;;;9.30;99.90;;;;;;5100432;28;20554;-79
2022/12/22 08:22:32;;;;;;;61.65;24.98;;;9.30;99.90;;;;;;5066645;28;20048;-78
2022/12/22 08:24:58;;;;;;;71.72;27.15;;;9.30;99.90;;;;;;5084905;28;20036;-77
2022/12/22 08:27:37;;;;;;;61.55;24.27;;;9.30;99.90;;;;;;5056778;28;20044;-78
2022/12/22 08:30:04;;;;;;;62.53;24.67;;;9.30;99.90;;;;;;5066739;28;20040;-78
2022/12/22 08:32:30;;;;;;;65.50;25.92;;;9.40;99.90;;;;;;5066435;28;20047;-77
2022/12/22 08:34:56;;;;;;;62.70;24.08;;;9.40;99.90;;;;;;5084408;28;20043;-78
2022/12/22 08:37:26;;;;;;;73.28;28.55;;;9.40;99.90;;;;;;5079201;28;20032;-77
2022/12/22 08:39:56;;;;;;;77.15;29.88;;;9.40;99.90;;;;;;5095618;28;20039;-78
2022/12/22 08:42:24;;;;;;;72.55;26.95;;;9.40;99.90;;;;;;5109573;27;20044;-78
2022/12/22 08:44:52;;;;;;;66.15;24.80;;;9.40;99.90;;;;;;5085031;28;20036;-78
2022/12/22 08:47:19;;;;;;;87.88;33.67;;;9.40;99.90;;;;;;5060233;28;20043;-78
2022/12/22 08:49:46;;;;;;;63.63;25.15;;;9.40;99.90;;;;;;5082576;28;20043;-78
2022/12/22 08:52:13;;;;;;;73.82;29.45;;;9.40;99.90;;;;;;5084481;28;20039;-78
2022/12/22 08:54:39;;;;;;;68.60;25.35;;;9.40;99.90;;;;;;5066635;28;20410;-77
2022/12/22 08:57:05;;;;;;;53.35;23.10;;;9.40;99.90;;;;;;5077406;28;20059;-78
2022/12/22 08:59:32;;;;;;;55.50;23.67;;;9.40;99.90;;;;;;5082089;28;20036;-77
2022/12/22 09:02:03;;;;;;;58.22;23.70;;;9.30;99.90;;;;;;5083196;28;20469;-78
2022/12/22 09:04:32;;;;;;;60.95;25.67;;;9.30;99.90;;;;;;5062936;28;20029;-78
2022/12/22 09:06:59;;;;;;;79.03;29.83;;;9.30;99.90;;;;;;5076489;28;20065;-77
2022/12/22 09:09:25;;;;;;;85.15;33.53;;;9.30;99.90;;;;;;5079403;28;20036;-78
2022/12/22 09:11:51;;;;;;;79.57;31.52;;;9.30;99.90;;;;;;5079821;28;20040;-78
2022/12/22 09:14:18;;;;;;;75.90;29.90;;;9.30;99.90;;;;;;5075847;28;20028;-78
2022/12/22 09:16:44;;;;;;;68.93;27.35;;;9.30;99.90;;;;;;5074886;28;20521;-77
2022/12/22 09:19:11;;;;;;;94.05;34.30;;;9.30;99.90;;;;;;5078576;28;20044;-78
2022/12/22 09:21:37;;;;;;;72.13;28.17;;;9.30;99.90;;;;;;5068201;28;20434;-78
2022/12/22 09:24:06;;;;;;;79.90;31.95;;;9.30;99.90;;;;;;5069586;28;20042;-78
2022/12/22 09:26:33;;;;;;;74.45;30.30;;;9.30;99.90;;;;;;5077944;28;20044;-79
2022/12/22 09:28:59;;;;;;;66.82;27.65;;;9.20;99.90;;;;;;5065604;28;20058;-78
2022/12/22 09:31:26;;;;;;;72.68;28.98;;;9.20;99.90;;;;;;5087896;28;20517;-78
2022/12/22 09:33:53;;;;;;;76.13;32.17;;;9.10;99.90;;;;;;5087412;28;20031;-79
2022/12/22 09:36:22;;;;;;;56.20;23.58;;;9.00;99.90;;;;;;5087038;28;20047;-78
2022/12/22 09:38:49;;;;;;;57.75;23.75;;;9.00;99.90;;;;;;5064085;28;20055;-78
2022/12/22 09:41:26;;;;;;;72.15;28.40;;;8.90;99.90;;;;;;5070690;28;20554;-79
2022/12/22 09:43:55;;;;;;;65.45;26.40;;;8.90;99.90;;;;;;5070664;28;20024;-78
2022/12/22 09:46:28;;;;;;;69.55;26.38;;;8.90;99.90;;;;;;5087998;28;20032;-78
2022/12/22 09:48:55;;;;;;;73.82;26.35;;;8.90;99.90;;;;;;5095608;27;20035;-79
2022/12/22 09:51:22;;;;;;;54.55;24.17;;;8.90;99.90;;;;;;5103679;28;20032;-78
2022/12/22 09:53:54;;;;;;;45.38;19.70;;;9.10;99.90;;;;;;5088547;28;20502;-78
2022/12/22 09:56:22;;;;;;;36.72;18.75;;;9.20;99.90;;;;;;5086325;28;20063;-78
2022/12/22 09:58:48;;;;;;;40.40;21.60;;;9.30;99.90;;;;;;5096499;28;20068;-79
2022/12/22 10:01:48;;;;;;;37.15;20.27;;;9.50;99.90;;;;;;5070137;28;20040;-78
2022/12/22 10:04:27;;;;;;;27.83;16.63;;;9.80;99.90;;;;;;5085408;28;20062;-78
2022/12/22 10:07:04;;;;;;;28.13;14.48;;;10.00;99.90;;;;;;5098460;28;20044;-77
2022/12/22 10:09:32;;;;;;;26.10;15.48;;;10.20;99.90;;;;;;5085902;28;20095;-76
2022/12/22 10:12:01;;;;;;;24.17;15.30;;;10.20;99.90;;;;;;5061413;28;20036;-76
2022/12/22 10:14:34;;;;;;;24.33;15.15;;;10.30;99.90;;;;;;5086611;28;20032;-76
2022/12/22 10:17:13;;;;;;;25.92;15.45;;;10.40;99.90;;;;;;5081173;28;20032;-76
2022/12/22 10:19:39;;;;;;;27.13;16.02;;;10.20;99.90;;;;;;5083585;28;20051;-77
2022/12/22 10:22:29;;;;;;;28.65;14.70;;;10.10;99.90;;;;;;5086945;28;20435;-76
2022/12/22 10:24:56;;;;;;;36.50;19.45;;;9.90;99.90;;;;;;5086309;28;20394;-77
2022/12/22 10:27:25;;;;;;;38.03;20.23;;;9.90;99.90;;;;;;5079550;28;20050;-76
2022/12/22 10:29:52;;;;;;;32.40;16.48;;;9.80;99.90;;;;;;5086126;28;20032;-77
2022/12/22 10:32:20;;;;;;;31.38;17.90;;;9.70;99.90;;;;;;5086818;28;20485;-76
2022/12/22 10:35:05;;;;;;;34.55;17.45;;;9.60;99.90;;;;;;5067624;28;20044;-81
2022/12/22 10:37:35;;;;;;;32.97;15.82;;;9.50;99.90;;;;;;5062062;28;20040;-76
2022/12/22 10:40:17;;;;;;;36.97;18.73;;;9.30;99.90;;;;;;5085230;28;20024;-76
2022/12/22 10:42:54;;;;;;;36.78;17.13;;;9.20;99.90;;;;;;5089743;28;20054;-75
2022/12/22 10:45:24;;;;;;;41.10;17.92;;;9.20;99.90;;;;;;5068186;28;20024;-75
2022/12/22 10:47:54;;;;;;;38.08;17.02;;;9.10;99.90;;;;;;5076073;28;20035;-82
2022/12/22 10:50:21;;;;;;;37.72;17.80;;;9.10;99.90;;;;;;5086740;28;20036;-77
2022/12/22 10:52:56;;;;;;;39.90;17.52;;;9.10;99.90;;;;;;5082796;28;20032;-76
2022/12/22 10:55:28;;;;;;;34.33;16.98;;;9.10;99.90;;;;;;5094595;28;20051;-77
2022/12/22 10:58:21;;;;;;;32.97;15.80;;;9.00;99.90;;;;;;5060732;28;20024;-77
2022/12/22 11:01:03;;;;;;;42.28;16.23;;;8.90;99.90;;;;;;5083280;28;20059;-77
2022/12/22 11:03:30;;;;;;;40.28;16.85;;;8.90;99.90;;;;;;5082754;28;20052;-77
2022/12/22 11:05:59;;;;;;;38.40;16.55;;;8.90;99.90;;;;;;5067908;28;20031;-77
2022/12/22 11:08:26;;;;;;;32.22;15.13;;;8.90;99.90;;;;;;5077652;28;20028;-78
2022/12/22 11:10:58;;;;;;;30.42;16.30;;;8.80;99.90;;;;;;5086274;28;20047;-78
2022/12/22 11:13:31;;;;;;;30.77;15.57;;;8.80;99.90;;;;;;5085654;28;20035;-78
2022/12/22 11:16:12;;;;;;;33.10;17.23;;;8.80;99.90;;;;;;5068261;28;20501;-78
2022/12/22 11:19:06;;;;;;;33.22;14.90;;;8.80;99.90;;;;;;5077082;28;20033;-80
2022/12/22 11:22:01;;;;;;;32.35;16.00;;;8.80;99.90;;;;;;5077799;28;20048;-80
2022/12/22 11:24:33;;;;;;;30.05;14.65;;;8.80;99.90;;;;;;5068322;28;20513;-79
2022/12/22 11:26:59;;;;;;;34.58;16.08;;;8.80;99.90;;;;;;5091272;28;20615;-80
2022/12/22 11:29:37;;;;;;;30.80;16.70;;;8.90;99.90;;;;;;5080290;28;20032;-79
2022/12/22 11:32:06;;;;;;;33.17;17.33;;;8.90;99.90;;;;;;5084058;28;20043;-83
2022/12/22 11:35:07;;;;;;;31.95;17.70;;;8.90;99.90;;;;;;5062145;28;20043;-79
2022/12/22 11:37:52;;;;;;;35.90;19.63;;;9.00;99.90;;;;;;5061369;28;20044;-79
2022/12/22 11:40:47;;;;;;;31.30;18.00;;;9.10;99.90;;;;;;5082554;28;20043;-78
2022/12/22 11:43:51;;;;;;;33.55;17.67;;;9.20;99.90;;;;;;5077084;28;20032;-80
2022/12/22 11:46:23;;;;;;;38.58;19.55;;;9.30;99.90;;;;;;5065404;28;20034;-82
2022/12/22 11:48:59;;;;;;;42.70;21.05;;;9.30;99.90;;;;;;5061351;28;20043;-77
2022/12/22 11:51:40;;;;;;;42.60;21.25;;;9.40;99.90;;;;;;5066038;28;20044;-77
2022/12/22 11:54:29;;;;;;;43.83;21.55;;;9.40;99.90;;;;;;5080951;28;20048;-78
2022/12/22 11:57:01;;;;;;;49.92;25.50;;;9.30;99.90;;;;;;5062486;28;21155;-80
2022/12/22 11:59:39;;;;;;;47.87;24.10;;;9.30;99.90;;;;;;5084146;28;20046;-78
2022/12/22 12:02:30;;;;;;;48.03;23.52;;;9.40;99.90;;;;;;5084702;28;20043;-78
2022/12/22 12:05:08;;;;;;;56.05;28.45;;;9.40;99.90;;;;;;5083745;28;20043;-78
2022/12/22 12:07:38;;;;;;;45.65;24.35;;;9.50;99.90;;;;;;5058743;28;20035;-77
2022/12/22 12:10:13;;;;;;;48.17;24.42;;;9.40;99.90;;;;;;5099826;28;20039;-77
2022/12/22 12:13:21;;;;;;;55.92;27.98;;;9.40;99.90;;;;;;5064873;28;20040;-77
2022/12/22 12:15:53;;;;;;;53.15;27.08;;;9.40;99.90;;;;;;5083513;28;20398;-77
2022/12/22 12:18:45;;;;;;;52.70;27.77;;;9.30;99.90;;;;;;5074935;28;20044;-76
2022/12/22 12:21:35;;;;;;;49.63;26.70;;;9.40;99.90;;;;;;5084401;28;20055;-77
2022/12/22 12:24:35;;;;;;;60.05;31.02;;;9.50;99.90;;;;;;5067860;28;20028;-77
2022/12/22 12:27:23;;;;;;;54.13;27.40;;;9.60;99.90;;;;;;5079619;28;20039;-77
2022/12/22 12:30:01;;;;;;;62.35;30.48;;;9.60;99.90;;;;;;5067290;28;20036;-76
2022/12/22 12:32:44;;;;;;;47.33;25.58;;;9.60;99.90;;;;;;5083941;28;20028;-76
2022/12/22 12:35:42;;;;;;;48.78;23.10;;;9.70;99.90;;;;;;5083235;28;20502;-77
2022/12/22 12:38:35;;;;;;;46.28;24.50;;;9.80;99.90;;;;;;5060203;28;20120;-76
2022/12/22 12:41:29;;;;;;;53.28;27.52;;;9.80;99.90;;;;;;5081480;28;20036;-76
2022/12/22 12:43:56;;;;;;;53.28;25.73;;;9.80;99.90;;;;;;5069069;28;20482;-77
2022/12/22 12:46:51;;;;;;;44.95;24.17;;;9.90;99.90;;;;;;5083544;28;20032;-79
2022/12/22 12:49:33;;;;;;;39.80;22.17;;;9.90;99.90;;;;;;5081268;28;20035;-76
2022/12/22 12:52:10;;;;;;;43.28;24.48;;;9.90;99.90;;;;;;5084792;28;20024;-76
2022/12/22 12:54:37;;;;;;;37.55;22.20;;;9.80;99.90;;;;;;5071524;28;20671;-77
2022/12/22 12:57:06;;;;;;;39.17;20.67;;;9.80;99.90;;;;;;5082795;28;20052;-77
2022/12/22 12:59:38;;;;;;;36.70;21.25;;;9.80;99.90;;;;;;5087238;28;20067;-76
2022/12/22 13:02:32;;;;;;;35.17;19.58;;;9.80;99.90;;;;;;5088377;28;20047;-77
2022/12/22 13:05:11;;;;;;;34.38;19.63;;;9.90;99.90;;;;;;5085750;28;20036;-76
2022/12/22 13:08:03;;;;;;;26.50;17.10;;;9.90;99.90;;;;;;5081902;28;20036;-77
2022/12/22 13:10:30;;;;;;;33.85;19.35;;;9.70;99.90;;;;;;5066353;28;20045;-77
2022/12/22 13:12:57;;;;;;;31.05;18.75;;;9.70;99.90;;;;;;5054788;28;20036;-77
2022/12/22 13:15:34;;;;;;;25.48;15.57;;;9.70;99.90;;;;;;5066205;28;20502;-76
2022/12/22 13:18:02;;;;;;;30.25;15.27;;;9.70;99.90;;;;;;5091609;28;20047;-76
2022/12/22 13:20:36;;;;;;;26.50;14.85;;;9.60;99.90;;;;;;5068235;28;20047;-76
2022/12/22 13:23:11;;;;;;;29.05;17.67;;;9.60;99.90;;;;;;5100635;28;20051;-75
2022/12/22 13:25:57;;;;;;;33.45;17.90;;;9.60;99.90;;;;;;5068755;28;20412;-77
2022/12/22 13:28:25;;;;;;;27.30;16.73;;;9.50;99.90;;;;;;5063146;28;20502;-76
2022/12/22 13:31:02;;;;;;;31.77;17.52;;;9.40;99.90;;;;;;5076062;28;20044;-76
2022/12/22 13:33:36;;;;;;;27.38;16.52;;;9.40;99.90;;;;;;5068586;28;20036;-76
2022/12/22 13:36:05;;;;;;;22.58;14.70;;;9.30;99.90;;;;;;5070196;28;20051;-76
2022/12/22 13:38:34;;;;;;;30.40;17.05;;;9.40;99.90;;;;;;5079156;28;20055;-76
2022/12/22 13:41:14;;;;;;;31.52;18.77;;;9.30;99.90;;;;;;5087284;28;20032;-76
2022/12/22 13:43:44;;;;;;;26.83;16.58;;;9.30;99.90;;;;;;5085366;28;20044;-75
2022/12/22 13:46:10;;;;;;;29.90;18.17;;;9.30;99.90;;;;;;5068403;28;20607;-75
2022/12/22 13:48:43;;;;;;;37.78;23.33;;;9.30;99.90;;;;;;5061051;28;20406;-75
2022/12/22 13:51:28;;;;;;;38.88;23.38;;;9.30;99.90;;;;;;5101575;28;20043;-75
2022/12/22 13:54:11;;;;;;;40.20;25.98;;;9.30;99.90;;;;;;5075232;28;20040;-75
2022/12/22 13:56:42;;;;;;;40.08;23.65;;;9.20;99.90;;;;;;5064220;28;20044;-75
2022/12/22 13:59:53;;;;;;;42.50;25.23;;;9.20;99.90;;;;;;5048033;28;20108;-75
2022/12/22 14:02:20;;;;;;;38.70;23.15;;;9.20;99.90;;;;;;5083270;28;20052;-75
2022/12/22 14:05:08;;;;;;;35.78;23.58;;;9.20;99.90;;;;;;5070041;28;20780;-75
2022/12/22 14:07:35;;;;;;;36.90;21.38;;;9.20;99.90;;;;;;5063689;28;20043;-75
2022/12/22 14:10:01;;;;;;;41.38;25.20;;;9.30;99.90;;;;;;5069905;28;20411;-75
2022/12/22 14:12:41;;;;;;;37.80;23.35;;;9.30;99.90;;;;;;5052115;28;20129;-75
2022/12/22 14:15:16;;;;;;;41.25;25.70;;;9.30;99.90;;;;;;5063185;28;20047;-76
2022/12/22 14:17:42;;;;;;;42.17;25.77;;;9.30;99.90;;;;;;5077509;28;20287;-76
2022/12/22 14:20:25;;;;;;;40.70;26.25;;;9.30;99.90;;;;;;5084350;28;20475;-75
2022/12/22 14:23:00;;;;;;;38.80;26.05;;;9.30;99.90;;;;;;5086472;28;20059;-74
2022/12/22 14:25:34;;;;;;;50.33;29.10;;;9.30;99.90;;;;;;5068908;28;20038;-75
2022/12/22 14:28:03;;;;;;;47.00;31.30;;;9.30;99.90;;;;;;5080220;28;20483;-75
2022/12/22 14:30:43;;;;;;;52.63;31.55;;;9.30;99.90;;;;;;5086520;28;20036;-75
2022/12/22 14:33:31;;;;;;;47.40;29.60;;;9.30;99.90;;;;;;5085825;28;20069;-76
2022/12/22 14:36:11;;;;;;;46.65;29.58;;;9.20;99.90;;;;;;5085018;28;20040;-75
2022/12/22 14:38:40;;;;;;;49.35;29.20;;;9.20;99.90;;;;;;5063315;28;20032;-76
2022/12/22 14:41:40;;;;;;;57.30;36.78;;;9.20;99.90;;;;;;5069041;28;20440;-75
2022/12/22 14:44:41;;;;;;;54.50;34.40;;;9.20;99.90;;;;;;5101517;28;20449;-76
2022/12/22 14:47:10;;;;;;;46.90;29.15;;;9.20;99.90;;;;;;5082174;28;20036;-76
2022/12/22 14:50:00;;;;;;;43.10;27.70;;;9.20;99.90;;;;;;5068505;28;20394;-76
2022/12/22 14:52:38;;;;;;;50.97;30.98;;;9.20;99.90;;;;;;5069548;28;20044;-76
2022/12/22 14:55:19;;;;;;;43.88;27.20;;;9.20;99.90;;;;;;5083281;28;20433;-76
2022/12/22 14:57:52;;;;;;;40.97;25.88;;;9.20;99.90;;;;;;5097144;28;20051;-76
2022/12/22 15:00:21;;;;;;;45.83;27.83;;;9.20;99.90;;;;;;5087194;28;20380;-75
2022/12/22 15:02:54;;;;;;;41.75;25.35;;;9.20;99.90;;;;;;5070037;28;20391;-76
2022/12/22 15:05:25;;;;;;;38.20;24.25;;;9.20;99.90;;;;;;5083433;28;20364;-76
2022/12/22 15:07:55;;;;;;;43.28;25.52;;;9.20;99.90;;;;;;5078959;28;20032;-75
2022/12/22 15:10:24;;;;;;;43.38;27.33;;;9.20;99.90;;;;;;5084097;28;20028;-76
2022/12/22 15:12:57;;;;;;;41.00;26.35;;;9.20;99.90;;;;;;5069194;28;20410;-76
2022/12/22 15:15:23;;;;;;;41.40;26.83;;;9.20;99.90;;;;;;5067833;28;20047;-76
2022/12/22 15:17:52;;;;;;;42.85;28.25;;;9.20;99.90;;;;;;5096151;28;20379;-76
2022/12/22 15:20:21;;;;;;;52.35;32.38;;;9.20;99.90;;;;;;5085091;28;20047;-75
2022/12/22 15:22:48;;;;;;;43.00;27.75;;;9.20;99.90;;;;;;5085778;28;20051;-76
2022/12/22 15:25:17;;;;;;;46.33;30.17;;;9.20;99.90;;;;;;5065280;28;20028;-78
2022/12/22 15:27:44;;;;;;;46.00;28.90;;;9.20;99.90;;;;;;5110248;27;20425;-77
2022/12/22 15:30:13;;;;;;;45.70;28.02;;;9.10;99.90;;;;;;5085202;28;20028;-78
2022/12/22 15:32:41;;;;;;;49.20;30.33;;;9.10;99.90;;;;;;5085279;28;20402;-78
2022/12/22 15:35:32;;;;;;;51.30;31.75;;;9.10;99.90;;;;;;5085099;28;20043;-78
2022/12/22 15:37:59;;;;;;;44.58;28.77;;;9.10;99.90;;;;;;5071452;28;20548;-78
2022/12/22 15:40:27;;;;;;;45.55;28.15;;;9.10;99.90;;;;;;5075034;28;20040;-78
2022/12/22 15:42:53;;;;;;;39.35;25.67;;;9.00;99.90;;;;;;5085858;28;20248;-78
2022/12/22 15:45:21;;;;;;;44.83;26.70;;;9.00;99.90;;;;;;5084693;28;20394;-78
2022/12/22 15:47:51;;;;;;;44.55;26.63;;;9.00;99.90;;;;;;5060458;28;20051;-78
2022/12/22 15:50:20;;;;;;;41.53;26.58;;;9.00;99.90;;;;;;5067112;28;20044;-78
2022/12/22 15:52:53;;;;;;;42.80;26.08;;;9.00;99.90;;;;;;5067330;28;20020;-78
2022/12/22 15:55:20;;;;;;;42.35;27.00;;;9.10;99.90;;;;;;5080284;28;20032;-78
2022/12/22 15:57:50;;;;;;;40.42;25.85;;;9.00;99.90;;;;;;5061210;28;20059;-78
2022/12/22 16:00:18;;;;;;;44.28;27.17;;;9.00;99.90;;;;;;5067522;28;20024;-77
2022/12/22 16:02:44;;;;;;;48.20;26.65;;;9.00;99.90;;;;;;5085199;28;20044;-77
2022/12/22 16:05:11;;;;;;;40.45;24.15;;;9.00;99.90;;;;;;5101822;28;20046;-77
2022/12/22 16:07:38;;;;;;;45.38;28.77;;;9.00;99.90;;;;;;5078235;28;20036;-77
2022/12/22 16:10:06;;;;;;;53.28;30.90;;;9.00;99.90;;;;;;5084052;28;20032;-77
2022/12/22 16:12:36;;;;;;;55.38;31.80;;;8.90;99.90;;;;;;5083873;28;20036;-78
2022/12/22 16:15:02;;;;;;;50.60;30.83;;;8.90;99.90;;;;;;5085936;28;20059;-78
2022/12/22 16:17:29;;;;;;;58.65;30.48;;;8.90;99.90;;;;;;5078621;28;20048;-79
2022/12/22 16:19:56;;;;;;;48.45;28.10;;;8.90;99.90;;;;;;5066854;28;20035;-78
2022/12/22 16:22:32;;;;;;;46.15;27.17;;;8.90;99.90;;;;;;5084287;28;20047;-79
2022/12/22 16:25:01;;;;;;;46.80;26.83;;;8.90;99.90;;;;;;5067770;28;20043;-81
2022/12/22 16:27:28;;;;;;;42.47;24.77;;;8.90;99.90;;;;;;5062032;28;20036;-80
2022/12/22 16:29:56;;;;;;;52.47;27.73;;;8.90;99.90;;;;;;5070994;28;20481;-79
2022/12/22 16:32:25;;;;;;;55.58;28.83;;;8.80;99.90;;;;;;5072037;28;20028;-79